Time;durP1;ratioP1;P1;durP2;ratioP2;P2;SDS_P1;SDS_P2;PMS_P1;PMS_P2;Temp;Humidity;BMP_temperature;BMP_pressure;BME280_temperature;BME280_humidity;BME280_pressure;Samples;Min_cycle;Max_cycle;Signal;HPM_P1;HPM_P2
2022/10/29 00:01:09;;;;;;;9.07;3.60;;;;;;;15.64;100.00;101187.63;5209784;28;20033;-76
2022/10/29 00:03:39;;;;;;;14.77;4.10;;;;;;;15.66;100.00;101196.31;5212071;28;20287;-76
2022/10/29 00:06:10;;;;;;;15.85;3.92;;;;;;;15.62;100.00;101184.22;5213219;28;20029;-75
2022/10/29 00:08:41;;;;;;;10.10;3.83;;;;;;;15.61;100.00;101185.13;5211484;28;20475;-76
2022/10/29 00:11:17;;;;;;;13.27;4.38;;;;;;;15.66;100.00;101191.03;5208978;28;20039;-76
2022/10/29 00:13:53;;;;;;;10.82;3.92;;;;;;;15.59;100.00;101200.16;5204943;28;20168;-76
2022/10/29 00:16:26;;;;;;;12.27;4.22;;;;;;;15.55;100.00;101195.94;5206699;28;20062;-76
2022/10/29 00:18:57;;;;;;;11.60;4.07;;;;;;;15.53;100.00;101184.63;5210284;28;20064;-76
2022/10/29 00:21:27;;;;;;;14.75;3.65;;;;;;;15.47;100.00;101184.91;5209548;28;20072;-76
2022/10/29 00:23:57;;;;;;;14.32;4.20;;;;;;;15.46;100.00;101183.19;5208885;28;20064;-76
2022/10/29 00:26:29;;;;;;;13.05;4.15;;;;;;;15.41;100.00;101187.84;5207546;28;20161;-76
2022/10/29 00:28:59;;;;;;;13.80;3.92;;;;;;;15.42;100.00;101183.41;5212765;28;20041;-76
2022/10/29 00:31:30;;;;;;;13.02;4.20;;;;;;;15.34;100.00;101199.56;5198519;28;20534;-76
2022/10/29 00:34:00;;;;;;;12.75;4.30;;;;;;;15.33;100.00;101208.38;5211940;28;20021;-76
2022/10/29 00:36:30;;;;;;;13.35;4.35;;;;;;;15.29;100.00;101200.69;5196960;28;20522;-76
2022/10/29 00:39:01;;;;;;;15.48;3.78;;;;;;;15.26;100.00;101206.06;5207345;28;20248;-77
2022/10/29 00:41:31;;;;;;;12.48;4.35;;;;;;;15.34;100.00;101210.09;5208739;28;20049;-76
2022/10/29 00:44:14;;;;;;;15.80;4.05;;;;;;;15.25;100.00;101209.63;5205423;28;20025;-76
2022/10/29 00:46:48;;;;;;;11.00;3.88;;;;;;;15.24;100.00;101214.03;5208026;28;20030;-76
2022/10/29 00:49:19;;;;;;;15.02;4.97;;;;;;;15.19;100.00;101215.16;5210565;28;20021;-76
2022/10/29 00:51:51;;;;;;;9.40;3.80;;;;;;;15.24;100.00;101221.06;5211010;28;20055;-77
2022/10/29 00:54:21;;;;;;;12.77;3.83;;;;;;;15.26;100.00;101217.47;5207300;28;20486;-76
2022/10/29 00:56:57;;;;;;;13.60;4.10;;;;;;;15.32;100.00;101217.22;5207914;28;20025;-76
2022/10/29 00:59:27;;;;;;;12.30;4.03;;;;;;;15.39;100.00;101223.06;5208915;28;20033;-76
2022/10/29 01:01:58;;;;;;;15.75;5.32;;;;;;;15.45;100.00;101218.38;5210701;28;20107;-77
2022/10/29 01:04:29;;;;;;;11.57;3.97;;;;;;;15.56;100.00;101220.53;5211953;28;20032;-76
2022/10/29 01:07:02;;;;;;;15.38;4.40;;;;;;;15.60;100.00;101215.03;5209823;28;20033;-76
2022/10/29 01:09:32;;;;;;;12.27;4.00;;;;;;;15.61;100.00;101224.66;5204418;28;20025;-76
2022/10/29 01:12:38;;;;;;;12.88;3.63;;;;;;;15.48;100.00;101223.50;5206778;28;20029;-76
2022/10/29 01:15:31;;;;;;;10.25;3.47;;;;;;;15.52;100.00;101227.69;5199544;28;20553;-77
2022/10/29 01:18:14;;;;;;;10.52;3.58;;;;;;;15.50;100.00;101226.09;5210592;28;20499;-77
2022/10/29 01:21:09;;;;;;;9.95;3.60;;;;;;;15.53;100.00;101236.47;5209615;28;20032;-76
2022/10/29 01:24:06;;;;;;;15.05;4.45;;;;;;;15.55;100.00;101230.19;5210506;28;20149;-76
2022/10/29 01:26:42;;;;;;;9.15;3.75;;;;;;;15.55;100.00;101224.91;5210354;28;20411;-77
2022/10/29 01:29:33;;;;;;;13.13;4.40;;;;;;;15.59;100.00;101217.75;5209992;28;20456;-76
2022/10/29 01:32:15;;;;;;;11.85;4.22;;;;;;;15.66;100.00;101216.53;5206920;28;20040;-76
2022/10/29 01:34:51;;;;;;;14.57;4.07;;;;;;;15.59;100.00;101215.97;5236935;22;20035;-71
2022/10/29 01:37:41;;;;;;;11.10;3.83;;;;;;;15.52;100.00;101219.78;5174236;28;20041;-73
2022/10/29 01:40:23;;;;;;;13.30;3.92;;;;;;;15.43;100.00;101214.97;5177131;28;20026;-73
2022/10/29 01:43:06;;;;;;;10.20;3.67;;;;;;;15.38;100.00;101216.91;5179386;28;20038;-73
2022/10/29 01:45:45;;;;;;;11.07;3.90;;;;;;;15.41;100.00;101223.84;5180559;28;20018;-73
2022/10/29 01:48:20;;;;;;;13.27;3.88;;;;;;;15.34;100.00;101225.88;5179326;28;20022;-73
2022/10/29 01:50:56;;;;;;;17.83;4.50;;;;;;;15.34;100.00;101219.78;5181407;28;20037;-73
2022/10/29 01:53:28;;;;;;;11.90;4.00;;;;;;;15.33;100.00;101218.06;5178994;28;20402;-73
2022/10/29 01:55:58;;;;;;;12.05;4.15;;;;;;;15.28;100.00;101217.38;5178516;28;20053;-72
2022/10/29 01:58:30;;;;;;;14.32;3.92;;;;;;;15.25;100.00;101213.13;5179876;28;20030;-73
2022/10/29 02:01:05;;;;;;;12.00;4.35;;;;;;;15.21;100.00;101214.16;5179885;28;20037;-72
2022/10/29 02:03:56;;;;;;;15.63;4.70;;;;;;;15.16;100.00;101210.88;5180234;28;20502;-73
2022/10/29 02:06:36;;;;;;;12.43;3.58;;;;;;;15.05;100.00;101217.53;5163268;28;20034;-71
2022/10/29 02:09:25;;;;;;;13.45;4.28;;;;;;;14.96;100.00;101226.69;5162806;28;20523;-73
2022/10/29 02:12:07;;;;;;;9.52;3.65;;;;;;;15.00;100.00;101230.91;5178927;28;20040;-72
2022/10/29 02:14:45;;;;;;;11.57;3.47;;;;;;;15.02;100.00;101239.56;5180334;28;20026;-72
2022/10/29 02:17:15;;;;;;;12.57;3.88;;;;;;;14.98;100.00;101230.09;5179730;28;20120;-73
2022/10/29 02:19:46;;;;;;;13.02;3.50;;;;;;;14.93;100.00;101221.56;5179838;28;20128;-73
2022/10/29 02:22:16;;;;;;;9.52;2.95;;;;;;;14.72;100.00;101224.25;5180163;28;20026;-73
2022/10/29 02:24:46;;;;;;;14.38;4.28;;;;;;;14.52;100.00;101225.97;5180864;28;20029;-73
2022/10/29 02:27:16;;;;;;;12.95;4.25;;;;;;;14.46;100.00;101220.97;5179357;28;20108;-73
2022/10/29 02:29:47;;;;;;;12.40;3.17;;;;;;;14.62;100.00;101220.28;5179130;28;20022;-72
2022/10/29 02:32:17;;;;;;;12.27;4.03;;;;;;;14.57;100.00;101221.41;5178718;28;20034;-73
2022/10/29 02:34:47;;;;;;;14.38;3.88;;;;;;;14.57;100.00;101224.03;5162129;28;20080;-73
2022/10/29 02:37:18;;;;;;;14.02;4.07;;;;;;;14.51;100.00;101225.13;5179148;28;20400;-73
2022/10/29 02:39:48;;;;;;;12.05;3.88;;;;;;;14.55;100.00;101217.97;5179570;28;20045;-73
2022/10/29 02:42:18;;;;;;;13.95;4.47;;;;;;;14.57;100.00;101224.03;5179550;28;20030;-73
2022/10/29 02:44:48;;;;;;;11.10;4.78;;;;;;;14.61;100.00;101225.63;5161769;28;20072;-73
2022/10/29 02:47:19;;;;;;;15.95;4.80;;;;;;;14.69;100.00;101218.25;5178525;28;20030;-73
2022/10/29 02:49:49;;;;;;;20.95;5.20;;;;;;;14.78;100.00;101213.44;5178746;28;20029;-73
2022/10/29 02:52:19;;;;;;;11.85;4.68;;;;;;;14.87;100.00;101215.69;5178394;28;20040;-73
2022/10/29 02:54:50;;;;;;;17.73;4.75;;;;;;;14.90;100.00;101216.44;5179589;28;20038;-73
2022/10/29 02:57:20;;;;;;;16.27;4.75;;;;;;;14.85;100.00;101223.66;5179097;28;20388;-73
2022/10/29 02:59:50;;;;;;;10.63;3.70;;;;;;;14.73;100.00;101222.47;5161753;28;20026;-73
2022/10/29 03:02:20;;;;;;;11.52;4.30;;;;;;;14.69;100.00;101216.47;5178337;28;20379;-73
2022/10/29 03:04:51;;;;;;;11.45;3.45;;;;;;;14.73;100.00;101215.44;5179512;28;20452;-73
2022/10/29 03:07:21;;;;;;;8.30;3.60;;;;;;;14.74;100.00;101218.94;5178863;28;20030;-73
2022/10/29 03:09:51;;;;;;;12.80;3.95;;;;;;;14.77;100.00;101217.00;5179225;28;20022;-73
2022/10/29 03:12:21;;;;;;;14.73;4.33;;;;;;;14.59;100.00;101201.16;5179662;28;20495;-72
2022/10/29 03:14:52;;;;;;;11.87;4.40;;;;;;;14.45;100.00;101200.88;5179572;28;20309;-73
2022/10/29 03:17:22;;;;;;;12.60;3.90;;;;;;;14.44;100.00;101207.88;5178614;28;20314;-72
2022/10/29 03:19:53;;;;;;;8.20;3.40;;;;;;;14.43;100.00;101208.81;5178774;28;20040;-73
2022/10/29 03:22:23;;;;;;;10.80;3.90;;;;;;;14.35;100.00;101212.66;5179216;28;20033;-73
2022/10/29 03:24:53;;;;;;;11.98;3.90;;;;;;;14.36;100.00;101214.38;5179401;28;20033;-73
2022/10/29 03:27:23;;;;;;;9.63;3.60;;;;;;;14.29;100.00;101212.94;5178368;28;20492;-73
2022/10/29 03:29:54;;;;;;;9.13;3.95;;;;;;;14.33;100.00;101211.88;5178583;28;20694;-73
2022/10/29 03:32:24;;;;;;;10.77;4.03;;;;;;;14.32;100.00;101212.78;5178758;28;20301;-73
2022/10/29 03:34:54;;;;;;;9.25;3.95;;;;;;;14.35;100.00;101218.78;5178767;28;20364;-73
2022/10/29 03:37:24;;;;;;;12.43;4.32;;;;;;;14.50;100.00;101212.03;5177867;28;20448;-73
2022/10/29 03:39:55;;;;;;;15.90;5.10;;;;;;;14.57;100.00;101206.47;5178791;28;20042;-73
2022/10/29 03:42:25;;;;;;;10.95;4.32;;;;;;;14.40;100.00;101200.22;5161327;28;20030;-73
2022/10/29 03:44:59;;;;;;;14.10;4.45;;;;;;;14.34;100.00;101200.44;5179067;28;20514;-73
2022/10/29 03:47:32;;;;;;;11.90;3.83;;;;;;;14.23;100.00;101197.41;5178056;28;20038;-73
2022/10/29 03:50:02;;;;;;;15.20;4.35;;;;;;;14.29;100.00;101192.72;5158987;28;20201;-74
2022/10/29 03:52:33;;;;;;;12.23;4.05;;;;;;;14.07;100.00;101196.28;5178435;28;20509;-73
2022/10/29 03:55:04;;;;;;;16.05;4.30;;;;;;;14.07;100.00;101198.91;5177964;28;20036;-73
2022/10/29 03:57:34;;;;;;;14.32;5.40;;;;;;;14.16;100.00;101201.19;5160479;28;20043;-73
2022/10/29 04:00:05;;;;;;;16.48;5.00;;;;;;;14.19;100.00;101198.44;5178211;28;20030;-72
2022/10/29 04:02:36;;;;;;;13.07;4.68;;;;;;;14.17;100.00;101197.63;5178066;28;20033;-72
2022/10/29 04:05:07;;;;;;;12.30;5.38;;;;;;;14.06;100.00;101203.28;5177938;28;20044;-73
2022/10/29 04:07:37;;;;;;;16.25;5.40;;;;;;;13.94;100.00;101205.56;5178173;28;20041;-72
2022/10/29 04:10:07;;;;;;;11.30;4.55;;;;;;;13.96;100.00;101196.69;5178272;28;20037;-73
2022/10/29 04:12:38;;;;;;;20.90;5.20;;;;;;;13.70;100.00;101201.22;5178452;28;20517;-72
2022/10/29 04:15:09;;;;;;;15.07;5.07;;;;;;;13.65;100.00;101203.19;5162971;28;20376;-72
2022/10/29 04:17:39;;;;;;;14.35;4.53;;;;;;;13.65;100.00;101208.44;5177769;28;20747;-73
2022/10/29 04:20:10;;;;;;;13.73;5.00;;;;;;;13.69;100.00;101215.28;5160499;28;20034;-73
2022/10/29 04:22:40;;;;;;;18.25;4.38;;;;;;;13.62;100.00;101212.06;5161125;28;20030;-73
2022/10/29 04:25:10;;;;;;;13.65;4.78;;;;;;;13.60;100.00;101213.00;5178529;28;20048;-72
2022/10/29 04:27:40;;;;;;;13.77;4.88;;;;;;;13.62;100.00;101229.56;5177439;28;20030;-73
2022/10/29 04:30:11;;;;;;;12.90;5.00;;;;;;;13.68;100.00;101230.19;5178061;28;20673;-73
2022/10/29 04:32:41;;;;;;;15.02;5.38;;;;;;;13.70;100.00;101224.88;5178593;28;20480;-72
2022/10/29 04:35:11;;;;;;;16.08;5.43;;;;;;;13.64;100.00;101225.97;5159274;28;20041;-72
2022/10/29 04:37:42;;;;;;;19.35;5.82;;;;;;;13.60;100.00;101220.91;5178446;28;20480;-73
2022/10/29 04:40:12;;;;;;;15.68;5.10;;;;;;;13.62;100.00;101225.19;5178157;28;20025;-72
2022/10/29 04:42:42;;;;;;;13.18;4.55;;;;;;;13.64;100.00;101222.47;5178808;28;20156;-73
2022/10/29 04:45:13;;;;;;;12.40;4.88;;;;;;;13.72;100.00;101226.53;5178736;28;20396;-73
2022/10/29 04:47:43;;;;;;;12.50;4.85;;;;;;;13.73;100.00;101223.00;5177853;28;20468;-73
2022/10/29 04:50:13;;;;;;;14.05;5.18;;;;;;;13.72;100.00;101230.94;5177780;28;20041;-72
2022/10/29 04:52:44;;;;;;;15.25;4.85;;;;;;;13.72;100.00;101233.56;5178726;28;20021;-73
2022/10/29 04:55:14;;;;;;;16.65;5.50;;;;;;;13.69;100.00;101224.03;5177486;28;20475;-73
2022/10/29 04:57:48;;;;;;;17.70;5.28;;;;;;;13.71;100.00;101218.72;5177062;28;20425;-72
2022/10/29 05:00:19;;;;;;;13.30;5.15;;;;;;;13.71;100.00;101213.47;5178825;28;20144;-73
2022/10/29 05:02:51;;;;;;;14.20;4.70;;;;;;;13.75;100.00;101209.81;5177811;28;20484;-73
2022/10/29 05:05:22;;;;;;;14.32;5.57;;;;;;;13.67;100.00;101207.47;5177679;28;20014;-73
2022/10/29 05:07:57;;;;;;;13.52;4.47;;;;;;;13.59;100.00;101212.16;5177824;28;20037;-73
2022/10/29 05:10:29;;;;;;;;;;;;;;;13.63;100.00;101205.00;5177625;28;20456;-73
2022/10/29 05:13:05;;;;;;;12.82;4.90;;;;;;;13.51;100.00;101214.22;5177997;28;19925;-73
2022/10/29 05:15:37;;;;;;;14.93;4.90;;;;;;;13.41;100.00;101207.59;5179395;28;20033;-73
2022/10/29 05:18:08;;;;;;;15.45;5.30;;;;;;;13.40;100.00;101215.53;5166379;28;20125;-71
2022/10/29 05:20:39;;;;;;;17.80;5.28;;;;;;;13.33;100.00;101216.66;5181852;28;20021;-73
2022/10/29 05:23:10;;;;;;;13.87;5.23;;;;;;;13.28;100.00;101223.84;5181985;28;20036;-73
2022/10/29 05:25:41;;;;;;;12.60;4.75;;;;;;;13.27;100.00;101211.63;5181851;28;20790;-73
2022/10/29 05:28:13;;;;;;;19.40;5.38;;;;;;;13.26;100.00;101215.19;5180535;28;20053;-72
2022/10/29 05:30:44;;;;;;;13.85;5.00;;;;;;;13.43;100.00;101215.41;5180954;28;20044;-73
2022/10/29 05:33:19;;;;;;;15.43;5.38;;;;;;;13.28;100.00;101216.84;5180738;28;20022;-73
2022/10/29 05:35:50;;;;;;;11.38;4.65;;;;;;;13.37;100.00;101216.50;5180848;28;20037;-73
2022/10/29 05:38:20;;;;;;;13.30;5.05;;;;;;;13.32;100.00;101217.56;5180386;28;20403;-73
2022/10/29 05:40:50;;;;;;;16.92;5.20;;;;;;;13.32;100.00;101214.94;5181664;28;20038;-73
2022/10/29 05:43:21;;;;;;;25.73;5.40;;;;;;;13.30;100.00;101219.38;5181623;28;20505;-73
2022/10/29 05:45:51;;;;;;;13.73;5.23;;;;;;;13.22;100.00;101224.09;5181059;28;20034;-73
2022/10/29 05:48:21;;;;;;;16.00;4.90;;;;;;;13.15;100.00;101228.69;5180879;28;20280;-73
2022/10/29 05:50:51;;;;;;;13.77;5.27;;;;;;;13.16;100.00;101235.66;5181699;28;20049;-73
2022/10/29 05:53:22;;;;;;;14.15;5.10;;;;;;;13.22;100.00;101229.31;5181195;28;20351;-73
2022/10/29 05:55:52;;;;;;;15.37;5.40;;;;;;;13.10;100.00;101224.50;5162775;28;20108;-73
2022/10/29 05:58:22;;;;;;;15.63;5.50;;;;;;;13.18;100.00;101227.69;5179880;28;20774;-72
2022/10/29 06:00:52;;;;;;;18.85;5.78;;;;;;;13.24;100.00;101222.25;5180979;28;20030;-73
2022/10/29 06:03:23;;;;;;;11.95;5.32;;;;;;;13.27;100.00;101217.72;5181842;28;20030;-73
2022/10/29 06:05:53;;;;;;;16.23;5.40;;;;;;;13.29;100.00;101226.44;5181396;28;20112;-73
2022/10/29 06:08:23;;;;;;;16.07;5.50;;;;;;;13.36;100.00;101227.03;5180309;28;20426;-72
2022/10/29 06:10:54;;;;;;;14.73;4.78;;;;;;;13.43;100.00;101228.53;5180958;28;20662;-72
2022/10/29 06:13:24;;;;;;;13.95;5.18;;;;;;;13.44;100.00;101225.00;5180424;28;20026;-73
2022/10/29 06:15:59;;;;;;;12.18;4.78;;;;;;;13.34;100.00;101221.00;5181375;28;20663;-72
2022/10/29 06:18:29;;;;;;;12.70;5.23;;;;;;;13.16;100.00;101229.53;5178783;28;20435;-72
2022/10/29 06:21:00;;;;;;;10.43;4.68;;;;;;;13.15;100.00;101233.06;5180935;28;20034;-72
2022/10/29 06:23:30;;;;;;;17.65;5.90;;;;;;;13.12;100.00;101233.19;5181031;28;20504;-73
2022/10/29 06:26:02;;;;;;;15.43;5.55;;;;;;;13.17;100.00;101232.13;5179782;28;20467;-72
2022/10/29 06:28:32;;;;;;;16.05;6.82;;;;;;;13.20;100.00;101232.00;5178864;28;20022;-73
2022/10/29 06:31:02;;;;;;;18.05;6.07;;;;;;;13.31;100.00;101236.84;5180395;28;20443;-73
2022/10/29 06:33:33;;;;;;;16.60;6.13;;;;;;;13.34;100.00;101234.97;5165278;28;20371;-72
2022/10/29 06:36:03;;;;;;;20.30;5.30;;;;;;;13.49;100.00;101234.44;5180005;28;20033;-73
2022/10/29 06:38:34;;;;;;;18.67;6.22;;;;;;;13.45;100.00;101229.34;5179138;28;20281;-73
2022/10/29 06:41:04;;;;;;;15.05;5.35;;;;;;;13.50;100.00;101236.16;5180026;28;20206;-72
2022/10/29 06:43:34;;;;;;;14.63;5.57;;;;;;;13.71;100.00;101239.75;5179017;28;20488;-73
2022/10/29 06:46:05;;;;;;;14.88;5.63;;;;;;;13.82;100.00;101242.81;5178050;28;20037;-71
2022/10/29 06:48:35;;;;;;;19.02;6.03;;;;;;;13.65;100.00;101247.84;5178902;28;20162;-71
2022/10/29 06:51:05;;;;;;;12.10;5.35;;;;;;;13.64;100.00;101241.75;5179105;28;20526;-71
2022/10/29 06:53:35;;;;;;;15.77;5.90;;;;;;;13.75;100.00;101246.59;5178644;28;20037;-71
2022/10/29 06:56:06;;;;;;;15.82;6.00;;;;;;;13.76;100.00;101233.38;5160206;28;20029;-72
2022/10/29 06:58:36;;;;;;;19.30;6.70;;;;;;;13.97;100.00;101243.09;5179385;28;20511;-72
2022/10/29 07:01:06;;;;;;;17.50;6.70;;;;;;;14.00;100.00;101237.72;5179356;28;20036;-71
2022/10/29 07:03:36;;;;;;;20.50;7.25;;;;;;;14.12;100.00;101247.72;5178965;28;20073;-72
2022/10/29 07:06:07;;;;;;;20.85;6.80;;;;;;;14.32;100.00;101247.84;5178875;28;20467;-71
2022/10/29 07:08:37;;;;;;;19.38;6.80;;;;;;;14.23;100.00;101260.50;5178954;28;20052;-71
2022/10/29 07:11:07;;;;;;;17.38;7.10;;;;;;;14.34;100.00;101245.13;5179611;28;20087;-71
2022/10/29 07:13:37;;;;;;;19.55;6.47;;;;;;;14.33;100.00;101235.53;5179418;28;20030;-71
2022/10/29 07:16:08;;;;;;;18.80;6.43;;;;;;;14.37;100.00;101240.63;5179453;28;20426;-71
2022/10/29 07:18:38;;;;;;;17.27;6.15;;;;;;;14.41;100.00;101252.72;5178746;28;20022;-70
2022/10/29 07:21:09;;;;;;;15.52;7.03;;;;;;;14.50;100.00;101247.09;5161562;28;20034;-70
2022/10/29 07:23:39;;;;;;;20.30;6.47;;;;;;;14.69;100.00;101244.56;5179754;28;20034;-72
2022/10/29 07:26:09;;;;;;;20.40;7.40;;;;;;;14.83;100.00;101250.97;5179455;28;20475;-70
2022/10/29 07:28:40;;;;;;;18.07;6.37;;;;;;;14.73;100.00;101248.78;5178693;28;20296;-71
2022/10/29 07:31:10;;;;;;;20.60;6.25;;;;;;;14.86;100.00;101258.72;5179440;28;20269;-72
2022/10/29 07:33:40;;;;;;;13.77;5.93;;;;;;;14.74;100.00;101256.59;5179221;28;20057;-71
2022/10/29 07:36:11;;;;;;;12.77;6.03;;;;;;;14.85;100.00;101246.50;5179523;28;20025;-73
2022/10/29 07:38:41;;;;;;;17.33;6.10;;;;;;;14.87;100.00;101236.75;5177352;28;20292;-72
2022/10/29 07:41:11;;;;;;;15.85;6.18;;;;;;;14.86;100.00;101228.00;5178333;28;20646;-72
2022/10/29 07:43:41;;;;;;;19.85;6.00;;;;;;;14.92;100.00;101240.91;5177091;28;20041;-72
2022/10/29 07:46:12;;;;;;;15.75;6.22;;;;;;;15.00;100.00;101244.06;5158837;28;20103;-71
2022/10/29 07:48:42;;;;;;;15.23;5.85;;;;;;;15.16;100.00;101253.00;5176777;28;20022;-72
2022/10/29 07:51:12;;;;;;;14.32;5.93;;;;;;;15.22;100.00;101252.72;5177682;28;20029;-72
2022/10/29 07:53:43;;;;;;;12.65;5.63;;;;;;;15.20;100.00;101249.31;5176861;28;20057;-70
2022/10/29 07:56:13;;;;;;;13.43;5.47;;;;;;;15.22;100.00;101254.53;5176078;28;20037;-72
2022/10/29 07:58:43;;;;;;;16.15;6.03;;;;;;;15.20;100.00;101265.13;5177573;28;20309;-72
2022/10/29 08:01:13;;;;;;;17.77;6.43;;;;;;;15.15;100.00;101258.34;5178189;28;20133;-72
2022/10/29 08:03:44;;;;;;;19.20;6.03;;;;;;;15.14;100.00;101259.25;5177683;28;20780;-72
2022/10/29 08:06:14;;;;;;;17.17;6.57;;;;;;;15.21;100.00;101251.03;5178467;28;20144;-72
2022/10/29 08:08:44;;;;;;;15.38;5.90;;;;;;;15.32;100.00;101243.53;5177783;28;20303;-72
2022/10/29 08:11:14;;;;;;;17.67;6.00;;;;;;;15.45;100.00;101249.13;5179059;28;20033;-72
2022/10/29 08:13:47;;;;;;;15.30;6.03;;;;;;;15.56;100.00;101233.69;5178532;28;20028;-72
2022/10/29 08:16:17;;;;;;;12.30;5.18;;;;;;;15.89;100.00;101222.44;5177150;28;20029;-73
2022/10/29 08:18:47;;;;;;;17.73;6.25;;;;;;;16.11;100.00;101225.78;5177845;28;20026;-72
2022/10/29 08:21:18;;;;;;;16.42;5.78;;;;;;;16.54;100.00;101228.06;5177908;28;20395;-72
2022/10/29 08:23:48;;;;;;;15.30;5.43;;;;;;;17.13;100.00;101223.28;5178751;28;20239;-73
2022/10/29 08:26:19;;;;;;;18.60;5.15;;;;;;;17.93;100.00;101210.06;5177677;28;20143;-72
2022/10/29 08:28:49;;;;;;;18.75;5.03;;;;;;;18.43;100.00;101212.53;5176884;28;20038;-72
2022/10/29 08:31:19;;;;;;;16.45;5.25;;;;;;;19.13;100.00;101211.75;5178217;28;20048;-72
2022/10/29 08:33:49;;;;;;;16.60;4.85;;;;;;;19.44;100.00;101214.28;5178586;28;20026;-73
2022/10/29 08:36:20;;;;;;;13.45;4.80;;;;;;;19.72;99.42;101208.13;5178096;28;20057;-72
2022/10/29 08:38:50;;;;;;;19.40;5.77;;;;;;;19.46;98.57;101206.25;5177698;28;20109;-73
2022/10/29 08:41:33;;;;;;;19.73;4.40;;;;;;;18.93;100.00;101222.72;5178164;28;20288;-73
2022/10/29 08:44:09;;;;;;;15.95;5.03;;;;;;;18.59;100.00;101232.75;5178619;28;20759;-72
2022/10/29 08:46:45;;;;;;;21.95;5.82;;;;;;;18.10;100.00;101233.78;5177713;28;20392;-72
2022/10/29 08:49:25;;;;;;;18.95;5.30;;;;;;;18.08;100.00;101233.03;5178699;28;20022;-72
2022/10/29 08:52:01;;;;;;;10.88;4.95;;;;;;;17.87;100.00;101233.34;5182461;28;20503;-72
2022/10/29 08:54:35;;;;;;;14.10;5.57;;;;;;;17.60;100.00;101229.53;5182354;28;20060;-72
2022/10/29 08:57:14;;;;;;;16.00;5.28;;;;;;;17.98;100.00;101236.28;5180106;28;20205;-71
2022/10/29 08:59:58;;;;;;;14.35;5.53;;;;;;;17.81;100.00;101233.69;5182019;28;20364;-73
2022/10/29 09:02:29;;;;;;;19.65;5.45;;;;;;;17.92;100.00;101236.59;5182757;28;20483;-72
2022/10/29 09:05:00;;;;;;;15.57;5.60;;;;;;;18.00;100.00;101242.31;5181899;28;20068;-72
2022/10/29 09:07:41;;;;;;;15.18;5.72;;;;;;;17.90;100.00;101241.97;5180658;28;20456;-72
2022/10/29 09:10:29;;;;;;;19.75;5.90;;;;;;;18.06;100.00;101247.25;5180276;28;20034;-72
2022/10/29 09:13:25;;;;;;;18.90;5.88;;;;;;;17.98;100.00;101238.91;5182401;28;20028;-72
2022/10/29 09:16:13;;;;;;;17.48;5.93;;;;;;;17.94;100.00;101247.94;5182342;28;20454;-72
2022/10/29 09:19:31;;;;;;;13.73;4.97;;;;;;;18.20;100.00;101229.66;5181190;28;20037;-72
2022/10/29 09:22:50;;;;;;;16.98;5.53;;;;;;;18.03;100.00;101243.00;5167144;28;20096;-73
2022/10/29 09:25:36;;;;;;;22.95;6.47;;;;;;;17.99;100.00;101235.31;5133113;28;20106;-72
2022/10/29 09:28:11;;;;;;;19.10;5.75;;;;;;;18.03;100.00;101223.63;5136133;28;20031;-71
2022/10/29 09:30:58;;;;;;;23.15;6.10;;;;;;;18.37;100.00;101215.53;5170811;28;20044;-72
2022/10/29 09:33:29;;;;;;;18.50;6.18;;;;;;;18.57;100.00;101216.09;5181598;28;20025;-72
2022/10/29 09:36:00;;;;;;;13.93;5.20;;;;;;;18.65;100.00;101215.66;5181061;28;20368;-72
2022/10/29 09:38:35;;;;;;;15.55;6.10;;;;;;;18.53;100.00;101208.41;5179749;28;20025;-72
2022/10/29 09:41:09;;;;;;;14.63;6.00;;;;;;;18.59;100.00;101208.03;5180917;28;20499;-72
2022/10/29 09:43:55;;;;;;;17.25;6.43;;;;;;;18.64;100.00;101211.28;5180703;28;20458;-72
2022/10/29 09:46:38;;;;;;;22.63;6.25;;;;;;;18.64;100.00;101220.09;5178948;28;20030;-71
2022/10/29 09:49:43;;;;;;;19.95;6.38;;;;;;;18.43;100.00;101209.88;5177769;28;20041;-72
2022/10/29 09:52:18;;;;;;;21.67;6.28;;;;;;;18.43;100.00;101208.09;5177829;28;20038;-72
2022/10/29 09:54:51;;;;;;;21.60;6.05;;;;;;;18.66;100.00;101201.47;5179403;28;20040;-72
2022/10/29 09:57:24;;;;;;;15.35;6.13;;;;;;;18.72;100.00;101201.94;5178363;28;20036;-71
2022/10/29 09:59:56;;;;;;;14.43;5.85;;;;;;;18.72;100.00;101212.53;5178664;28;20030;-72
2022/10/29 10:02:32;;;;;;;19.10;5.22;;;;;;;18.62;100.00;101206.09;5178311;28;20057;-71
2022/10/29 10:05:27;;;;;;;16.10;5.55;;;;;;;18.61;100.00;101201.72;5180352;28;20038;-72
2022/10/29 10:08:06;;;;;;;17.20;6.40;;;;;;;18.53;100.00;101203.13;5171818;28;20499;-73
2022/10/29 10:10:50;;;;;;;19.25;6.25;;;;;;;18.54;100.00;101202.19;5176744;28;20048;-73
2022/10/29 10:13:27;;;;;;;16.33;5.32;;;;;;;18.49;100.00;101193.66;5176269;28;20511;-72
2022/10/29 10:16:00;;;;;;;11.88;5.40;;;;;;;18.61;100.00;101190.28;5177447;28;20762;-72
2022/10/29 10:18:31;;;;;;;19.30;5.47;;;;;;;18.57;100.00;101192.25;5177649;28;20070;-73
2022/10/29 10:21:13;;;;;;;17.43;5.43;;;;;;;18.60;100.00;101193.88;5178867;28;20112;-72
2022/10/29 10:23:47;;;;;;;16.83;5.30;;;;;;;18.78;100.00;101198.94;5175658;28;20295;-73
2022/10/29 10:26:33;;;;;;;17.67;5.55;;;;;;;18.72;100.00;101190.50;5161138;28;20084;-73
2022/10/29 10:29:10;;;;;;;17.33;5.93;;;;;;;18.81;100.00;101181.06;5177461;28;20038;-72
2022/10/29 10:31:43;;;;;;;13.65;5.28;;;;;;;19.10;100.00;101193.41;5178602;28;20042;-72
2022/10/29 10:34:18;;;;;;;16.05;5.57;;;;;;;19.25;100.00;101192.50;5178547;28;20454;-72
2022/10/29 10:37:12;;;;;;;22.10;5.63;;;;;;;19.33;100.00;101195.56;5178613;28;20092;-72
2022/10/29 10:39:46;;;;;;;16.42;5.63;;;;;;;19.27;100.00;101180.00;5178130;28;20121;-73
2022/10/29 10:42:22;;;;;;;25.67;6.40;;;;;;;19.26;100.00;101183.59;5160527;28;20033;-72
2022/10/29 10:45:00;;;;;;;17.95;6.28;;;;;;;19.19;100.00;101181.44;5179030;28;20030;-73
2022/10/29 10:47:35;;;;;;;19.35;5.63;;;;;;;19.35;100.00;101168.94;5178276;28;20045;-73
2022/10/29 10:50:10;;;;;;;13.50;5.35;;;;;;;19.24;100.00;101168.75;5143243;28;20034;-73
2022/10/29 10:52:40;;;;;;;19.70;5.80;;;;;;;19.21;100.00;101174.22;5178099;28;20081;-72
2022/10/29 10:55:23;;;;;;;13.75;6.10;;;;;;;19.19;100.00;101163.75;5178798;28;20072;-73
2022/10/29 10:58:31;;;;;;;15.52;6.20;;;;;;;19.09;100.00;101170.50;5175693;28;20028;-73
2022/10/29 11:01:11;;;;;;;21.45;5.82;;;;;;;18.95;100.00;101157.22;5159709;28;20038;-73
2022/10/29 11:03:47;;;;;;;11.75;5.32;;;;;;;18.92;100.00;101152.13;5177848;28;20037;-73
2022/10/29 11:06:36;;;;;;;19.55;5.80;;;;;;;18.86;100.00;101152.50;5178959;28;20414;-72
2022/10/29 11:09:25;;;;;;;20.15;6.60;;;;;;;18.94;100.00;101144.94;5178295;28;20045;-73
2022/10/29 11:12:01;;;;;;;20.27;6.43;;;;;;;19.01;100.00;101143.63;5179865;28;20073;-73
2022/10/29 11:14:41;;;;;;;17.30;6.75;;;;;;;19.02;100.00;101145.34;5176353;28;20176;-73
2022/10/29 11:17:44;;;;;;;17.02;5.97;;;;;;;18.98;100.00;101148.25;5176146;28;20262;-73
2022/10/29 11:20:24;;;;;;;18.90;6.22;;;;;;;19.14;100.00;101138.44;5177364;28;20058;-72
2022/10/29 11:23:21;;;;;;;20.13;6.75;;;;;;;19.03;100.00;101136.44;5178156;28;20053;-73
2022/10/29 11:26:02;;;;;;;15.25;6.47;;;;;;;19.14;100.00;101130.47;5175686;28;20038;-72
2022/10/29 11:28:39;;;;;;;16.65;6.53;;;;;;;19.23;100.00;101124.63;5177567;28;20161;-73
2022/10/29 11:31:44;;;;;;;13.70;5.97;;;;;;;19.24;100.00;101110.44;5178261;28;20045;-73
2022/10/29 11:34:58;;;;;;;23.05;6.45;;;;;;;19.32;100.00;101114.31;5267231;27;20490;-74
2022/10/29 11:37:31;;;;;;;17.80;6.18;;;;;;;19.52;100.00;101111.25;5246117;28;20102;-73
2022/10/29 11:40:07;;;;;;;15.93;6.05;;;;;;;19.40;100.00;101092.59;5250080;28;20035;-73
2022/10/29 11:42:38;;;;;;;18.10;5.93;;;;;;;19.48;100.00;101099.13;5249962;28;20210;-74